sensor_id;sensor_type;location;lat;lon;timestamp;pressure;altitude;pressure_sealevel;temperature;humidity
16690;BME280;8458;52.220;9.884;2023-03-03T00:00:52;101636.53;;;0.91;100.00
16690;BME280;8458;52.220;9.884;2023-03-03T00:03:21;101620.63;;;0.94;100.00
16690;BME280;8458;52.220;9.884;2023-03-03T00:05:48;101615.31;;;1.01;100.00
16690;BME280;8458;52.220;9.884;2023-03-03T00:08:15;101606.44;;;0.99;100.00
16690;BME280;8458;52.220;9.884;2023-03-03T00:10:41;101603.72;;;0.99;100.00
16690;BME280;8458;52.220;9.884;2023-03-03T00:13:14;101609.50;;;1.04;100.00
16690;BME280;8458;52.220;9.884;2023-03-03T00:15:41;101605.13;;;0.95;100.00
16690;BME280;8458;52.220;9.884;2023-03-03T00:18:27;101618.72;;;1.03;100.00
16690;BME280;8458;52.220;9.884;2023-03-03T00:20:57;101618.00;;;1.09;100.00
16690;BME280;8458;52.220;9.884;2023-03-03T00:23:30;101622.38;;;1.18;100.00
16690;BME280;8458;52.220;9.884;2023-03-03T00:26:00;101622.22;;;1.20;100.00
16690;BME280;8458;52.220;9.884;2023-03-03T00:28:29;101623.66;;;1.07;100.00
16690;BME280;8458;52.220;9.884;2023-03-03T00:30:57;101617.34;;;1.07;100.00
16690;BME280;8458;52.220;9.884;2023-03-03T00:33:30;101616.97;;;1.10;100.00
16690;BME280;8458;52.220;9.884;2023-03-03T00:36:10;101611.69;;;1.09;100.00
16690;BME280;8458;52.220;9.884;2023-03-03T00:38:46;101616.63;;;1.13;100.00
16690;BME280;8458;52.220;9.884;2023-03-03T00:41:19;101616.75;;;1.20;100.00
16690;BME280;8458;52.220;9.884;2023-03-03T00:43:49;101624.41;;;1.24;100.00
16690;BME280;8458;52.220;9.884;2023-03-03T00:46:17;101627.13;;;1.24;100.00
16690;BME280;8458;52.220;9.884;2023-03-03T00:48:45;101634.78;;;1.29;100.00
16690;BME280;8458;52.220;9.884;2023-03-03T00:51:25;101638.00;;;1.33;100.00
16690;BME280;8458;52.220;9.884;2023-03-03T00:53:52;101632.59;;;1.24;100.00
16690;BME280;8458;52.220;9.884;2023-03-03T00:56:19;101633.97;;;1.20;100.00
16690;BME280;8458;52.220;9.884;2023-03-03T00:58:45;101632.69;;;1.08;100.00
16690;BME280;8458;52.220;9.884;2023-03-03T01:01:14;101638.44;;;0.82;100.00
16690;BME280;8458;52.220;9.884;2023-03-03T01:03:40;101639.72;;;0.63;100.00
16690;BME280;8458;52.220;9.884;2023-03-03T01:06:07;101635.84;;;0.49;100.00
16690;BME280;8458;52.220;9.884;2023-03-03T01:08:34;101637.72;;;0.48;100.00
16690;BME280;8458;52.220;9.884;2023-03-03T01:11:03;101637.50;;;0.58;100.00
16690;BME280;8458;52.220;9.884;2023-03-03T01:13:33;101638.69;;;0.56;100.00
16690;BME280;8458;52.220;9.884;2023-03-03T01:16:02;101635.78;;;0.57;100.00
16690;BME280;8458;52.220;9.884;2023-03-03T01:18:30;101640.91;;;0.60;100.00
16690;BME280;8458;52.220;9.884;2023-03-03T01:20:57;101630.84;;;0.61;100.00
16690;BME280;8458;52.220;9.884;2023-03-03T01:23:23;101636.31;;;0.61;100.00
16690;BME280;8458;52.220;9.884;2023-03-03T01:25:50;101631.56;;;0.55;100.00
16690;BME280;8458;52.220;9.884;2023-03-03T01:28:16;101637.03;;;0.46;100.00
16690;BME280;8458;52.220;9.884;2023-03-03T01:30:43;101626.66;;;0.33;100.00
16690;BME280;8458;52.220;9.884;2023-03-03T01:33:09;101633.28;;;0.47;100.00
16690;BME280;8458;52.220;9.884;2023-03-03T01:35:42;101640.59;;;0.55;100.00
16690;BME280;8458;52.220;9.884;2023-03-03T01:38:09;101635.66;;;0.50;100.00
16690;BME280;8458;52.220;9.884;2023-03-03T01:40:35;101637.16;;;0.61;100.00
16690;BME280;8458;52.220;9.884;2023-03-03T01:43:02;101639.00;;;0.69;100.00
16690;BME280;8458;52.220;9.884;2023-03-03T01:45:30;101634.94;;;0.57;100.00
16690;BME280;8458;52.220;9.884;2023-03-03T01:48:00;101629.50;;;0.57;100.00
16690;BME280;8458;52.220;9.884;2023-03-03T01:50:40;101637.53;;;0.42;100.00
16690;BME280;8458;52.220;9.884;2023-03-03T01:53:13;101624.75;;;0.50;100.00
16690;BME280;8458;52.220;9.884;2023-03-03T01:55:41;101620.44;;;0.64;100.00
16690;BME280;8458;52.220;9.884;2023-03-03T01:58:12;101623.66;;;0.68;100.00
16690;BME280;8458;52.220;9.884;2023-03-03T02:00:41;101623.63;;;0.76;100.00
16690;BME280;8458;52.220;9.884;2023-03-03T02:03:10;101622.56;;;0.85;100.00
16690;BME280;8458;52.220;9.884;2023-03-03T02:05:37;101638.25;;;0.83;100.00
16690;BME280;8458;52.220;9.884;2023-03-03T02:08:06;101633.25;;;0.56;100.00
16690;BME280;8458;52.220;9.884;2023-03-03T02:10:34;101637.19;;;0.45;100.00
16690;BME280;8458;52.220;9.884;2023-03-03T02:13:01;101637.19;;;0.45;100.00
16690;BME280;8458;52.220;9.884;2023-03-03T02:15:29;101636.34;;;0.44;100.00
16690;BME280;8458;52.220;9.884;2023-03-03T02:17:59;101639.63;;;0.23;100.00
16690;BME280;8458;52.220;9.884;2023-03-03T02:20:34;101645.97;;;0.07;100.00
16690;BME280;8458;52.220;9.884;2023-03-03T02:23:09;101637.13;;;0.05;100.00
16690;BME280;8458;52.220;9.884;2023-03-03T02:25:44;101632.31;;;0.24;100.00
16690;BME280;8458;52.220;9.884;2023-03-03T02:28:15;101624.81;;;0.26;100.00
16690;BME280;8458;52.220;9.884;2023-03-03T02:30:41;101628.91;;;0.30;100.00
16690;BME280;8458;52.220;9.884;2023-03-03T02:33:09;101628.19;;;0.28;100.00
16690;BME280;8458;52.220;9.884;2023-03-03T02:35:37;101630.75;;;0.38;100.00
16690;BME280;8458;52.220;9.884;2023-03-03T02:38:10;101621.03;;;0.35;100.00
16690;BME280;8458;52.220;9.884;2023-03-03T02:40:43;101609.97;;;0.20;100.00
16690;BME280;8458;52.220;9.884;2023-03-03T02:43:11;101610.88;;;-0.04;100.00
16690;BME280;8458;52.220;9.884;2023-03-03T02:45:42;101622.47;;;-0.10;100.00
16690;BME280;8458;52.220;9.884;2023-03-03T02:48:09;101615.84;;;-0.08;100.00
16690;BME280;8458;52.220;9.884;2023-03-03T02:50:35;101617.84;;;0.07;100.00
16690;BME280;8458;52.220;9.884;2023-03-03T02:53:02;101622.47;;;-0.10;100.00
16690;BME280;8458;52.220;9.884;2023-03-03T02:55:29;101622.47;;;-0.10;100.00
16690;BME280;8458;52.220;9.884;2023-03-03T02:57:56;101622.47;;;-0.10;100.00
16690;BME280;8458;52.220;9.884;2023-03-03T03:00:22;101614.25;;;0.06;100.00
16690;BME280;8458;52.220;9.884;2023-03-03T03:02:50;101621.09;;;0.02;100.00
16690;BME280;8458;52.220;9.884;2023-03-03T03:05:16;101611.88;;;0.03;100.00
16690;BME280;8458;52.220;9.884;2023-03-03T03:07:43;101622.44;;;0.14;100.00
16690;BME280;8458;52.220;9.884;2023-03-03T03:10:10;101611.16;;;0.26;100.00
16690;BME280;8458;52.220;9.884;2023-03-03T03:12:36;101613.50;;;0.37;100.00
16690;BME280;8458;52.220;9.884;2023-03-03T03:15:04;101607.88;;;0.47;100.00
16690;BME280;8458;52.220;9.884;2023-03-03T03:17:31;101607.66;;;0.57;100.00
16690;BME280;8458;52.220;9.884;2023-03-03T03:19:59;101604.88;;;0.65;100.00
16690;BME280;8458;52.220;9.884;2023-03-03T03:22:25;101593.06;;;0.73;100.00
16690;BME280;8458;52.220;9.884;2023-03-03T03:24:52;101604.81;;;0.81;100.00
16690;BME280;8458;52.220;9.884;2023-03-03T03:27:19;101613.69;;;0.83;100.00
16690;BME280;8458;52.220;9.884;2023-03-03T03:29:47;101607.19;;;0.84;100.00
16690;BME280;8458;52.220;9.884;2023-03-03T03:32:14;101598.66;;;0.87;100.00
16690;BME280;8458;52.220;9.884;2023-03-03T03:34:40;101601.59;;;0.78;100.00
16690;BME280;8458;52.220;9.884;2023-03-03T03:37:08;101613.84;;;0.82;100.00
16690;BME280;8458;52.220;9.884;2023-03-03T03:39:35;101622.91;;;0.82;100.00
16690;BME280;8458;52.220;9.884;2023-03-03T03:42:01;101624.59;;;0.83;100.00
16690;BME280;8458;52.220;9.884;2023-03-03T03:44:28;101618.84;;;0.78;100.00
16690;BME280;8458;52.220;9.884;2023-03-03T03:46:54;101617.47;;;0.82;100.00
16690;BME280;8458;52.220;9.884;2023-03-03T03:49:21;101609.56;;;0.87;100.00
16690;BME280;8458;52.220;9.884;2023-03-03T03:51:47;101615.25;;;0.78;100.00
16690;BME280;8458;52.220;9.884;2023-03-03T03:54:15;101606.53;;;0.82;100.00
16690;BME280;8458;52.220;9.884;2023-03-03T03:56:42;101604.81;;;0.81;100.00
16690;BME280;8458;52.220;9.884;2023-03-03T03:59:08;101605.66;;;0.82;100.00
16690;BME280;8458;52.220;9.884;2023-03-03T04:01:35;101604.59;;;0.91;100.00
16690;BME280;8458;52.220;9.884;2023-03-03T04:04:02;101614.31;;;0.94;100.00
16690;BME280;8458;52.220;9.884;2023-03-03T04:06:29;101607.88;;;0.86;100.00
16690;BME280;8458;52.220;9.884;2023-03-03T04:08:56;101619.50;;;0.80;100.00
16690;BME280;8458;52.220;9.884;2023-03-03T04:11:24;101632.13;;;0.81;100.00
16690;BME280;8458;52.220;9.884;2023-03-03T04:13:50;101635.00;;;0.88;100.00
16690;BME280;8458;52.220;9.884;2023-03-03T04:16:17;101640.63;;;0.86;100.00
16690;BME280;8458;52.220;9.884;2023-03-03T04:18:43;101633.13;;;0.88;100.00
16690;BME280;8458;52.220;9.884;2023-03-03T04:21:11;101631.56;;;0.94;100.00
16690;BME280;8458;52.220;9.884;2023-03-03T04:23:38;101631.44;;;0.87;100.00
16690;BME280;8458;52.220;9.884;2023-03-03T04:26:05;101638.59;;;0.88;100.00
16690;BME280;8458;52.220;9.884;2023-03-03T04:28:33;101638.59;;;0.88;100.00
16690;BME280;8458;52.220;9.884;2023-03-03T04:30:59;101642.84;;;0.91;100.00
16690;BME280;8458;52.220;9.884;2023-03-03T04:33:26;101632.25;;;0.96;100.00
16690;BME280;8458;52.220;9.884;2023-03-03T04:35:52;101632.03;;;1.06;100.00
16690;BME280;8458;52.220;9.884;2023-03-03T04:38:19;101644.47;;;1.09;100.00
16690;BME280;8458;52.220;9.884;2023-03-03T04:40:46;101634.03;;;1.12;100.00
16690;BME280;8458;52.220;9.884;2023-03-03T04:43:13;101643.59;;;1.08;100.00
16690;BME280;8458;52.220;9.884;2023-03-03T04:45:41;101639.84;;;1.09;100.00
16690;BME280;8458;52.220;9.884;2023-03-03T04:48:08;101646.69;;;1.13;100.00
16690;BME280;8458;52.220;9.884;2023-03-03T04:50:34;101641.56;;;1.10;100.00
16690;BME280;8458;52.220;9.884;2023-03-03T04:53:01;101642.41;;;1.11;100.00
16690;BME280;8458;52.220;9.884;2023-03-03T04:55:27;101635.38;;;1.16;100.00
16690;BME280;8458;52.220;9.884;2023-03-03T04:57:54;101647.03;;;1.10;100.00
16690;BME280;8458;52.220;9.884;2023-03-03T05:00:20;101641.22;;;1.13;100.00
16690;BME280;8458;52.220;9.884;2023-03-03T05:02:48;101642.53;;;1.17;100.00
16690;BME280;8458;52.220;9.884;2023-03-03T05:05:15;101637.06;;;1.17;100.00
16690;BME280;8458;52.220;9.884;2023-03-03T05:07:41;101639.25;;;1.22;100.00
16690;BME280;8458;52.220;9.884;2023-03-03T05:10:09;101644.72;;;1.22;100.00
16690;BME280;8458;52.220;9.884;2023-03-03T05:12:35;101645.97;;;1.19;100.00
16690;BME280;8458;52.220;9.884;2023-03-03T05:15:02;101653.09;;;1.20;100.00
16690;BME280;8458;52.220;9.884;2023-03-03T05:17:29;101657.19;;;1.24;100.00
16690;BME280;8458;52.220;9.884;2023-03-03T05:19:57;101649.53;;;1.20;100.00
16690;BME280;8458;52.220;9.884;2023-03-03T05:22:24;101651.44;;;1.19;100.00
16690;BME280;8458;52.220;9.884;2023-03-03T05:24:51;101645.59;;;1.22;100.00
16690;BME280;8458;52.220;9.884;2023-03-03T05:27:18;101638.38;;;1.30;100.00
16690;BME280;8458;52.220;9.884;2023-03-03T05:29:44;101636.53;;;1.22;100.00
16690;BME280;8458;52.220;9.884;2023-03-03T05:32:11;101637.59;;;1.21;100.00
16690;BME280;8458;52.220;9.884;2023-03-03T05:34:38;101631.75;;;1.24;100.00
16690;BME280;8458;52.220;9.884;2023-03-03T05:37:05;101623.75;;;1.22;100.00
16690;BME280;8458;52.220;9.884;2023-03-03T05:39:32;101615.53;;;1.22;100.00
16690;BME280;8458;52.220;9.884;2023-03-03T05:41:59;101619.59;;;1.27;100.00
16690;BME280;8458;52.220;9.884;2023-03-03T05:44:26;101611.91;;;1.30;100.00
16690;BME280;8458;52.220;9.884;2023-03-03T05:46:53;101613.41;;;1.33;100.00
16690;BME280;8458;52.220;9.884;2023-03-03T05:49:20;101616.50;;;1.30;100.00
16690;BME280;8458;52.220;9.884;2023-03-03T05:51:47;101607.94;;;1.33;100.00
16690;BME280;8458;52.220;9.884;2023-03-03T05:54:15;101616.44;;;1.38;100.00
16690;BME280;8458;52.220;9.884;2023-03-03T05:56:41;101619.34;;;1.36;100.00
16690;BME280;8458;52.220;9.884;2023-03-03T05:59:08;101613.41;;;1.33;100.00
16690;BME280;8458;52.220;9.884;2023-03-03T06:01:34;101618.88;;;1.33;100.00
16690;BME280;8458;52.220;9.884;2023-03-03T06:04:01;101624.34;;;1.33;100.00
16690;BME280;8458;52.220;9.884;2023-03-03T06:06:27;101627.72;;;1.35;100.00
16690;BME280;8458;52.220;9.884;2023-03-03T06:08:54;101628.50;;;1.29;100.00
16690;BME280;8458;52.220;9.884;2023-03-03T06:11:22;101628.50;;;1.20;100.00
16690;BME280;8458;52.220;9.884;2023-03-03T06:13:48;101634.31;;;1.25;100.00
16690;BME280;8458;52.220;9.884;2023-03-03T06:16:15;101643.03;;;1.21;100.00
16690;BME280;8458;52.220;9.884;2023-03-03T06:18:42;101649.34;;;1.21;100.00
16690;BME280;8458;52.220;9.884;2023-03-03T06:21:09;101651.72;;;1.24;100.00
16690;BME280;8458;52.220;9.884;2023-03-03T06:23:35;101662.97;;;1.30;100.00
16690;BME280;8458;52.220;9.884;2023-03-03T06:26:02;101665.34;;;1.33;100.00
16690;BME280;8458;52.220;9.884;2023-03-03T06:28:30;101667.06;;;1.34;100.00
16690;BME280;8458;52.220;9.884;2023-03-03T06:30:56;101676.44;;;1.31;100.00
16690;BME280;8458;52.220;9.884;2023-03-03T06:33:23;101671.16;;;1.30;100.00
16690;BME280;8458;52.220;9.884;2023-03-03T06:35:49;101675.31;;;1.17;100.00
16690;BME280;8458;52.220;9.884;2023-03-03T06:38:16;101673.19;;;1.04;100.00
16690;BME280;8458;52.220;9.884;2023-03-03T06:40:43;101675.72;;;1.06;100.00
16690;BME280;8458;52.220;9.884;2023-03-03T06:43:10;101681.50;;;1.11;100.00
16690;BME280;8458;52.220;9.884;2023-03-03T06:45:38;101679.94;;;1.17;100.00
16690;BME280;8458;52.220;9.884;2023-03-03T06:48:05;101675.66;;;1.22;100.00
16690;BME280;8458;52.220;9.884;2023-03-03T06:50:31;101677.31;;;1.32;100.00
16690;BME280;8458;52.220;9.884;2023-03-03T06:53:01;101685.81;;;1.37;100.00
16690;BME280;8458;52.220;9.884;2023-03-03T06:55:30;101683.75;;;1.39;100.00
16690;BME280;8458;52.220;9.884;2023-03-03T06:57:58;101676.38;;;1.39;100.00
16690;BME280;8458;52.220;9.884;2023-03-03T07:00:26;101685.13;;;1.35;100.00
16690;BME280;8458;52.220;9.884;2023-03-03T07:02:57;101679.84;;;1.33;100.00
16690;BME280;8458;52.220;9.884;2023-03-03T07:05:26;101680.72;;;1.34;100.00
16690;BME280;8458;52.220;9.884;2023-03-03T07:07:53;101685.69;;;1.30;100.00
16690;BME280;8458;52.220;9.884;2023-03-03T07:10:23;101694.03;;;1.37;100.00
16690;BME280;8458;52.220;9.884;2023-03-03T07:12:49;101691.81;;;1.32;100.00
16690;BME280;8458;52.220;9.884;2023-03-03T07:15:19;101702.94;;;1.31;100.00
16690;BME280;8458;52.220;9.884;2023-03-03T07:17:48;101686.91;;;1.28;100.00
16690;BME280;8458;52.220;9.884;2023-03-03T07:20:20;101696.13;;;1.27;100.00
16690;BME280;8458;52.220;9.884;2023-03-03T07:22:47;101684.81;;;1.30;100.00
16690;BME280;8458;52.220;9.884;2023-03-03T07:25:28;101711.63;;;1.34;100.00
16690;BME280;8458;52.220;9.884;2023-03-03T07:27:59;101701.00;;;1.39;100.00
16690;BME280;8458;52.220;9.884;2023-03-03T07:30:32;101701.69;;;1.41;100.00
16690;BME280;8458;52.220;9.884;2023-03-03T07:32:59;101706.63;;;1.46;100.00
16690;BME280;8458;52.220;9.884;2023-03-03T07:35:36;101705.91;;;1.52;100.00
16690;BME280;8458;52.220;9.884;2023-03-03T07:38:23;101707.41;;;1.55;100.00
16690;BME280;8458;52.220;9.884;2023-03-03T07:40:52;101713.56;;;1.57;100.00
16690;BME280;8458;52.220;9.884;2023-03-03T07:43:33;101716.47;;;1.55;100.00
16690;BME280;8458;52.220;9.884;2023-03-03T07:46:02;101718.16;;;1.56;100.00
16690;BME280;8458;52.220;9.884;2023-03-03T07:48:40;101721.44;;;1.52;100.00
16690;BME280;8458;52.220;9.884;2023-03-03T07:51:18;101726.78;;;1.45;100.00
16690;BME280;8458;52.220;9.884;2023-03-03T07:53:47;101728.44;;;1.54;100.00
16690;BME280;8458;52.220;9.884;2023-03-03T07:56:26;101722.97;;;1.54;100.00
16690;BME280;8458;52.220;9.884;2023-03-03T07:58:54;101728.66;;;1.45;100.00
16690;BME280;8458;52.220;9.884;2023-03-03T08:01:36;101729.44;;;1.30;100.00
16690;BME280;8458;52.220;9.884;2023-03-03T08:04:23;101725.41;;;1.41;100.00
16690;BME280;8458;52.220;9.884;2023-03-03T08:06:56;101727.84;;;1.36;100.00
16690;BME280;8458;52.220;9.884;2023-03-03T08:09:34;101729.44;;;1.30;100.00
16690;BME280;8458;52.220;9.884;2023-03-03T08:14:55;101733.66;;;1.33;100.00
16690;BME280;8458;52.220;9.884;2023-03-03T08:17:34;101735.72;;;1.31;100.00
16690;BME280;8458;52.220;9.884;2023-03-03T08:20:10;101738.06;;;1.42;100.00
16690;BME280;8458;52.220;9.884;2023-03-03T08:22:57;101739.25;;;1.48;100.00
16690;BME280;8458;52.220;9.884;2023-03-03T08:25:23;101740.38;;;1.53;100.00
16690;BME280;8458;52.220;9.884;2023-03-03T08:27:50;101739.78;;;1.43;100.00
16690;BME280;8458;52.220;9.884;2023-03-03T08:30:16;101737.75;;;1.37;100.00
16690;BME280;8458;52.220;9.884;2023-03-03T08:32:43;101741.69;;;1.34;100.00
16690;BME280;8458;52.220;9.884;2023-03-03T08:35:09;101739.44;;;1.38;100.00
16690;BME280;8458;52.220;9.884;2023-03-03T08:37:36;101738.91;;;1.42;100.00
16690;BME280;8458;52.220;9.884;2023-03-03T08:40:05;101737.22;;;1.41;100.00
16690;BME280;8458;52.220;9.884;2023-03-03T08:42:31;101745.38;;;1.50;100.00
16690;BME280;8458;52.220;9.884;2023-03-03T08:44:58;101732.22;;;1.45;100.00
16690;BME280;8458;52.220;9.884;2023-03-03T08:47:24;101733.78;;;1.39;100.00
16690;BME280;8458;52.220;9.884;2023-03-03T08:49:51;101742.09;;;1.54;100.00
16690;BME280;8458;52.220;9.884;2023-03-03T08:52:18;101739.66;;;1.59;100.00
16690;BME280;8458;52.220;9.884;2023-03-03T08:54:45;101746.38;;;1.57;100.00
16690;BME280;8458;52.220;9.884;2023-03-03T08:57:13;101747.44;;;1.48;100.00
16690;BME280;8458;52.220;9.884;2023-03-03T08:59:39;101742.44;;;1.51;100.00
16690;BME280;8458;52.220;9.884;2023-03-03T09:02:06;101752.03;;;1.47;100.00
16690;BME280;8458;52.220;9.884;2023-03-03T09:04:33;101752.75;;;1.41;100.00
16690;BME280;8458;52.220;9.884;2023-03-03T09:06:59;101752.69;;;1.57;100.00
16690;BME280;8458;52.220;9.884;2023-03-03T09:09:26;101748.59;;;1.53;100.00
16690;BME280;8458;52.220;9.884;2023-03-03T09:11:53;101751.13;;;1.63;100.00
16690;BME280;8458;52.220;9.884;2023-03-03T09:14:27;101745.06;;;1.76;100.00
16690;BME280;8458;52.220;9.884;2023-03-03T09:16:55;101744.81;;;2.09;100.00
16690;BME280;8458;52.220;9.884;2023-03-03T09:19:24;101750.78;;;1.89;100.00
16690;BME280;8458;52.220;9.884;2023-03-03T09:21:52;101751.25;;;2.16;100.00
16690;BME280;8458;52.220;9.884;2023-03-03T09:24:24;101745.88;;;2.46;100.00
16690;BME280;8458;52.220;9.884;2023-03-03T09:26:51;101739.56;;;2.45;100.00
16690;BME280;8458;52.220;9.884;2023-03-03T09:29:25;101737.38;;;2.41;100.00
16690;BME280;8458;52.220;9.884;2023-03-03T09:31:54;101740.13;;;2.41;100.00
16690;BME280;8458;52.220;9.884;2023-03-03T09:34:23;101737.75;;;2.38;99.90
16690;BME280;8458;52.220;9.884;2023-03-03T09:36:52;101734.13;;;2.22;99.33
16690;BME280;8458;52.220;9.884;2023-03-03T09:39:20;101744.31;;;2.28;98.89
16690;BME280;8458;52.220;9.884;2023-03-03T09:42:11;101743.47;;;2.28;98.67
16690;BME280;8458;52.220;9.884;2023-03-03T09:50:56;101745.06;;;2.22;96.95
16690;BME280;8458;52.220;9.884;2023-03-03T09:53:38;101751.91;;;2.18;96.73
16690;BME280;8458;52.220;9.884;2023-03-03T09:56:13;101746.28;;;1.96;97.62
16690;BME280;8458;52.220;9.884;2023-03-03T09:59:05;101745.06;;;1.76;99.94
16690;BME280;8458;52.220;9.884;2023-03-03T10:01:42;101753.69;;;1.56;100.00
16690;BME280;8458;52.220;9.884;2023-03-03T10:07:25;101757.34;;;1.80;100.00
16690;BME280;8458;52.220;9.884;2023-03-03T10:10:05;101755.63;;;1.79;100.00
16690;BME280;8458;52.220;9.884;2023-03-03T10:12:41;101751.53;;;1.75;100.00
16690;BME280;8458;52.220;9.884;2023-03-03T10:15:29;101749.94;;;1.57;100.00
16690;BME280;8458;52.220;9.884;2023-03-03T10:18:17;101749.53;;;1.69;100.00
16690;BME280;8458;52.220;9.884;2023-03-03T10:21:02;101755.06;;;1.60;100.00
16690;BME280;8458;52.220;9.884;2023-03-03T10:23:45;101745.69;;;1.86;100.00
16690;BME280;8458;52.220;9.884;2023-03-03T10:26:20;101745.88;;;2.46;100.00
16690;BME280;8458;52.220;9.884;2023-03-03T10:29:00;101744.56;;;2.42;100.00
16690;BME280;8458;52.220;9.884;2023-03-03T10:31:39;101756.47;;;2.26;99.71
16690;BME280;8458;52.220;9.884;2023-03-03T10:34:22;101753.28;;;1.99;99.84
16690;BME280;8458;52.220;9.884;2023-03-03T10:36:56;101763.41;;;1.90;99.95
16690;BME280;8458;52.220;9.884;2023-03-03T10:39:55;101750.78;;;1.89;100.00
16690;BME280;8458;52.220;9.884;2023-03-03T10:45:29;101759.66;;;1.91;100.00
16690;BME280;8458;52.220;9.884;2023-03-03T10:48:13;101764.69;;;2.03;100.00
16690;BME280;8458;52.220;9.884;2023-03-03T10:50:50;101768.06;;;2.13;100.00
16690;BME280;8458;52.220;9.884;2023-03-03T10:53:21;101769.50;;;2.24;100.00
16690;BME280;8458;52.220;9.884;2023-03-03T10:56:03;101767.31;;;2.19;99.74
16690;BME280;8458;52.220;9.884;2023-03-03T10:58:45;101762.56;;;2.13;99.36
16690;BME280;8458;52.220;9.884;2023-03-03T11:01:19;101760.56;;;2.07;99.38
16690;BME280;8458;52.220;9.884;2023-03-03T11:04:11;101765.03;;;2.08;99.60
16690;BME280;8458;52.220;9.884;2023-03-03T11:06:45;101758.81;;;2.14;100.00
16690;BME280;8458;52.220;9.884;2023-03-03T11:09:29;101761.22;;;2.09;99.83
16690;BME280;8458;52.220;9.884;2023-03-03T11:12:01;101763.78;;;2.10;99.89
16690;BME280;8458;52.220;9.884;2023-03-03T11:14:39;101755.53;;;1.95;98.97
16690;BME280;8458;52.220;9.884;2023-03-03T11:17:17;101755.16;;;1.99;98.67
16690;BME280;8458;52.220;9.884;2023-03-03T11:19:58;101761.66;;;1.97;99.26
16690;BME280;8458;52.220;9.884;2023-03-03T11:22:43;101746.28;;;1.96;98.73
16690;BME280;8458;52.220;9.884;2023-03-03T11:25:21;101752.38;;;2.07;98.54
16690;BME280;8458;52.220;9.884;2023-03-03T11:28:10;101744.69;;;2.25;98.28
16690;BME280;8458;52.220;9.884;2023-03-03T11:30:50;101751.25;;;2.16;97.88
16690;BME280;8458;52.220;9.884;2023-03-03T11:33:21;101749.25;;;2.10;97.76
16690;BME280;8458;52.220;9.884;2023-03-03T11:35:51;101747.19;;;2.12;97.58
16690;BME280;8458;52.220;9.884;2023-03-03T11:38:53;101749.34;;;2.02;98.16
16690;BME280;8458;52.220;9.884;2023-03-03T11:41:34;101751.72;;;2.05;98.40
16690;BME280;8458;52.220;9.884;2023-03-03T11:44:13;101752.72;;;2.04;98.55
16690;BME280;8458;52.220;9.884;2023-03-03T11:46:45;101746.22;;;2.05;98.70
16690;BME280;8458;52.220;9.884;2023-03-03T11:49:17;101742.25;;;2.07;98.33
16690;BME280;8458;52.220;9.884;2023-03-03T11:51:52;101743.78;;;2.10;99.13
16690;BME280;8458;52.220;9.884;2023-03-03T11:54:23;101743.13;;;2.08;98.78
16690;BME280;8458;52.220;9.884;2023-03-03T11:56:54;101739.94;;;2.19;98.68
16690;BME280;8458;52.220;9.884;2023-03-03T11:59:36;101738.25;;;2.18;98.15
16690;BME280;8458;52.220;9.884;2023-03-03T12:02:21;101733.75;;;2.25;98.59
16690;BME280;8458;52.220;9.884;2023-03-03T12:04:52;101728.63;;;2.22;98.18
16690;BME280;8458;52.220;9.884;2023-03-03T12:07:25;101731.84;;;2.03;98.74
16690;BME280;8458;52.220;9.884;2023-03-03T12:10:02;101724.56;;;1.95;98.96
16690;BME280;8458;52.220;9.884;2023-03-03T12:12:36;101718.88;;;2.05;98.82
16690;BME280;8458;52.220;9.884;2023-03-03T12:15:16;101719.53;;;2.07;99.01
16690;BME280;8458;52.220;9.884;2023-03-03T12:18:04;101714.06;;;2.07;99.19
16690;BME280;8458;52.220;9.884;2023-03-03T12:20:37;101693.06;;;2.22;98.53
16690;BME280;8458;52.220;9.884;2023-03-03T12:23:17;101702.53;;;2.35;97.19
16690;BME280;8458;52.220;9.884;2023-03-03T12:25:47;101697.88;;;2.35;96.27
16690;BME280;8458;52.220;9.884;2023-03-03T12:28:19;101700.06;;;2.40;96.66
16690;BME280;8458;52.220;9.884;2023-03-03T12:31:07;101700.00;;;2.48;97.00
16690;BME280;8458;52.220;9.884;2023-03-03T12:33:50;101689.53;;;2.51;96.45
16690;BME280;8458;52.220;9.884;2023-03-03T12:36:28;101693.28;;;2.50;96.05
16690;BME280;8458;52.220;9.884;2023-03-03T12:39:01;101686.66;;;2.30;95.75
16690;BME280;8458;52.220;9.884;2023-03-03T12:41:36;101684.75;;;2.30;96.18
16690;BME280;8458;52.220;9.884;2023-03-03T12:44:09;101682.41;;;2.27;96.47
16690;BME280;8458;52.220;9.884;2023-03-03T12:46:44;101677.50;;;2.38;96.23
16690;BME280;8458;52.220;9.884;2023-03-03T12:49:10;101673.94;;;2.52;96.89
16690;BME280;8458;52.220;9.884;2023-03-03T12:51:58;101674.63;;;2.54;96.11
16690;BME280;8458;52.220;9.884;2023-03-03T12:54:46;101680.00;;;2.62;96.94
16690;BME280;8458;52.220;9.884;2023-03-03T12:57:21;101677.63;;;2.59;96.59
16690;BME280;8458;52.220;9.884;2023-03-03T13:00:02;101665.28;;;2.63;95.89
16690;BME280;8458;52.220;9.884;2023-03-03T13:02:49;101669.50;;;2.66;96.32
16690;BME280;8458;52.220;9.884;2023-03-03T13:05:26;101673.88;;;2.60;96.38
16690;BME280;8458;52.220;9.884;2023-03-03T13:08:04;101654.31;;;2.63;95.76
16690;BME280;8458;52.220;9.884;2023-03-03T13:10:41;101666.09;;;2.79;95.99
16690;BME280;8458;52.220;9.884;2023-03-03T13:13:14;101656.66;;;2.81;96.89
16690;BME280;8458;52.220;9.884;2023-03-03T13:15:45;101663.53;;;2.77;96.91
16690;BME280;8458;52.220;9.884;2023-03-03T13:18:30;101662.97;;;2.82;96.84
16690;BME280;8458;52.220;9.884;2023-03-03T13:21:03;101657.44;;;2.90;96.67
16690;BME280;8458;52.220;9.884;2023-03-03T13:23:41;101663.28;;;2.87;95.42
16690;BME280;8458;52.220;9.884;2023-03-03T13:26:17;101667.25;;;2.84;95.07
16690;BME280;8458;52.220;9.884;2023-03-03T13:28:56;101658.84;;;2.86;95.86
16690;BME280;8458;52.220;9.884;2023-03-03T13:31:30;101656.19;;;2.78;95.59
16690;BME280;8458;52.220;9.884;2023-03-03T13:34:00;101657.22;;;2.77;95.52
16690;BME280;8458;52.220;9.884;2023-03-03T13:36:29;101652.41;;;2.79;95.82
16690;BME280;8458;52.220;9.884;2023-03-03T13:39:01;101655.53;;;2.91;96.01